sensor_id;sensor_type;location;lat;lon;timestamp;temperature;humidity
530;DHT22;251;48.704;9.210;2023-07-28T00:01:41;16.40;99.90
530;DHT22;251;48.704;9.210;2023-07-28T00:04:08;16.10;99.90
530;DHT22;251;48.704;9.210;2023-07-28T00:06:36;16.10;99.90
530;DHT22;251;48.704;9.210;2023-07-28T00:09:03;15.90;99.90
530;DHT22;251;48.704;9.210;2023-07-28T00:11:29;15.70;99.90
530;DHT22;251;48.704;9.210;2023-07-28T00:13:58;16.10;99.90
530;DHT22;251;48.704;9.210;2023-07-28T00:16:24;16.10;99.90
530;DHT22;251;48.704;9.210;2023-07-28T00:18:51;16.10;99.90
530;DHT22;251;48.704;9.210;2023-07-28T00:21:18;15.90;99.90
530;DHT22;251;48.704;9.210;2023-07-28T00:23:44;16.00;99.90
530;DHT22;251;48.704;9.210;2023-07-28T00:26:11;15.50;99.90
530;DHT22;251;48.704;9.210;2023-07-28T00:28:38;15.50;98.80
530;DHT22;251;48.704;9.210;2023-07-28T00:31:06;15.70;98.90
530;DHT22;251;48.704;9.210;2023-07-28T00:33:33;15.40;99.90
530;DHT22;251;48.704;9.210;2023-07-28T00:36:00;15.40;99.70
530;DHT22;251;48.704;9.210;2023-07-28T00:38:27;15.70;99.60
530;DHT22;251;48.704;9.210;2023-07-28T00:40:56;15.60;99.90
530;DHT22;251;48.704;9.210;2023-07-28T00:43:24;15.40;99.90
530;DHT22;251;48.704;9.210;2023-07-28T00:45:51;15.60;99.90
530;DHT22;251;48.704;9.210;2023-07-28T00:48:20;15.50;99.90
530;DHT22;251;48.704;9.210;2023-07-28T00:50:49;15.60;99.90
530;DHT22;251;48.704;9.210;2023-07-28T00:53:18;15.30;99.90
530;DHT22;251;48.704;9.210;2023-07-28T00:55:46;15.50;99.80
530;DHT22;251;48.704;9.210;2023-07-28T00:58:13;15.10;99.90
530;DHT22;251;48.704;9.210;2023-07-28T01:00:39;15.30;99.50
530;DHT22;251;48.704;9.210;2023-07-28T01:03:06;15.00;99.70
530;DHT22;251;48.704;9.210;2023-07-28T01:05:41;15.20;99.90
530;DHT22;251;48.704;9.210;2023-07-28T01:08:14;15.00;99.90
530;DHT22;251;48.704;9.210;2023-07-28T01:10:43;15.20;99.90
530;DHT22;251;48.704;9.210;2023-07-28T01:13:10;15.00;99.90
530;DHT22;251;48.704;9.210;2023-07-28T01:15:37;15.10;99.00
530;DHT22;251;48.704;9.210;2023-07-28T01:18:04;14.90;99.90
530;DHT22;251;48.704;9.210;2023-07-28T01:20:35;14.80;99.70
530;DHT22;251;48.704;9.210;2023-07-28T01:23:19;14.80;99.00
530;DHT22;251;48.704;9.210;2023-07-28T01:25:52;14.90;98.10
530;DHT22;251;48.704;9.210;2023-07-28T01:28:21;14.90;97.20
530;DHT22;251;48.704;9.210;2023-07-28T01:30:49;14.90;97.40
530;DHT22;251;48.704;9.210;2023-07-28T01:33:16;14.90;99.90
530;DHT22;251;48.704;9.210;2023-07-28T01:35:42;14.90;99.20
530;DHT22;251;48.704;9.210;2023-07-28T01:38:09;14.90;97.60
530;DHT22;251;48.704;9.210;2023-07-28T01:40:36;14.70;99.50
530;DHT22;251;48.704;9.210;2023-07-28T01:43:03;14.50;97.80
530;DHT22;251;48.704;9.210;2023-07-28T01:45:31;14.80;99.10
530;DHT22;251;48.704;9.210;2023-07-28T01:47:58;14.80;98.00
530;DHT22;251;48.704;9.210;2023-07-28T01:50:25;14.50;99.00
530;DHT22;251;48.704;9.210;2023-07-28T01:52:52;14.80;99.90
530;DHT22;251;48.704;9.210;2023-07-28T01:55:18;14.40;99.90
530;DHT22;251;48.704;9.210;2023-07-28T01:57:54;14.80;98.60
530;DHT22;251;48.704;9.210;2023-07-28T02:00:21;14.50;97.80
530;DHT22;251;48.704;9.210;2023-07-28T02:02:49;14.70;98.10
530;DHT22;251;48.704;9.210;2023-07-28T02:05:16;14.80;98.80
530;DHT22;251;48.704;9.210;2023-07-28T02:07:43;14.70;99.30
530;DHT22;251;48.704;9.210;2023-07-28T02:10:09;14.60;99.60
530;DHT22;251;48.704;9.210;2023-07-28T02:12:36;14.30;99.50
530;DHT22;251;48.704;9.210;2023-07-28T02:15:04;14.40;98.40
530;DHT22;251;48.704;9.210;2023-07-28T02:17:32;14.50;98.20
530;DHT22;251;48.704;9.210;2023-07-28T02:20:00;14.40;99.90
530;DHT22;251;48.704;9.210;2023-07-28T02:22:29;14.50;99.20
530;DHT22;251;48.704;9.210;2023-07-28T02:24:56;14.60;97.50
530;DHT22;251;48.704;9.210;2023-07-28T02:27:25;14.40;99.20
530;DHT22;251;48.704;9.210;2023-07-28T02:29:54;14.20;99.90
530;DHT22;251;48.704;9.210;2023-07-28T02:32:21;14.30;99.90
530;DHT22;251;48.704;9.210;2023-07-28T02:34:48;14.40;99.90
530;DHT22;251;48.704;9.210;2023-07-28T02:37:16;14.40;99.90
530;DHT22;251;48.704;9.210;2023-07-28T02:39:43;14.50;99.90
530;DHT22;251;48.704;9.210;2023-07-28T02:42:10;14.30;99.90
530;DHT22;251;48.704;9.210;2023-07-28T02:44:36;14.30;99.90
530;DHT22;251;48.704;9.210;2023-07-28T02:47:04;14.30;99.90
530;DHT22;251;48.704;9.210;2023-07-28T02:49:31;14.50;99.90
530;DHT22;251;48.704;9.210;2023-07-28T02:51:58;14.50;99.10
530;DHT22;251;48.704;9.210;2023-07-28T02:54:26;14.30;99.90
530;DHT22;251;48.704;9.210;2023-07-28T02:56:52;14.40;99.90
530;DHT22;251;48.704;9.210;2023-07-28T02:59:20;14.30;99.90
530;DHT22;251;48.704;9.210;2023-07-28T03:01:47;14.60;99.90
530;DHT22;251;48.704;9.210;2023-07-28T03:04:17;14.30;99.90
530;DHT22;251;48.704;9.210;2023-07-28T03:07:22;14.40;99.90
530;DHT22;251;48.704;9.210;2023-07-28T03:09:59;14.30;99.90
530;DHT22;251;48.704;9.210;2023-07-28T03:12:26;14.10;99.90
530;DHT22;251;48.704;9.210;2023-07-28T03:14:53;14.30;99.90
530;DHT22;251;48.704;9.210;2023-07-28T03:17:20;14.70;99.90
530;DHT22;251;48.704;9.210;2023-07-28T03:19:47;14.70;99.90
530;DHT22;251;48.704;9.210;2023-07-28T03:22:14;14.70;99.90
530;DHT22;251;48.704;9.210;2023-07-28T03:24:41;14.30;99.90
530;DHT22;251;48.704;9.210;2023-07-28T03:27:13;14.10;99.90
530;DHT22;251;48.704;9.210;2023-07-28T03:29:39;14.60;99.90
530;DHT22;251;48.704;9.210;2023-07-28T03:32:08;14.40;99.90
530;DHT22;251;48.704;9.210;2023-07-28T03:34:34;14.50;99.90
530;DHT22;251;48.704;9.210;2023-07-28T03:37:04;14.80;99.90
530;DHT22;251;48.704;9.210;2023-07-28T03:39:31;14.70;99.90
530;DHT22;251;48.704;9.210;2023-07-28T03:41:58;14.70;99.90
530;DHT22;251;48.704;9.210;2023-07-28T03:44:30;14.60;99.90
530;DHT22;251;48.704;9.210;2023-07-28T03:46:57;14.50;99.90
530;DHT22;251;48.704;9.210;2023-07-28T03:49:24;14.70;99.90
530;DHT22;251;48.704;9.210;2023-07-28T03:51:51;14.70;99.90
530;DHT22;251;48.704;9.210;2023-07-28T03:54:18;14.30;99.90
530;DHT22;251;48.704;9.210;2023-07-28T03:56:45;14.60;99.90
530;DHT22;251;48.704;9.210;2023-07-28T03:59:12;14.80;99.90
530;DHT22;251;48.704;9.210;2023-07-28T04:01:40;14.90;99.90
530;DHT22;251;48.704;9.210;2023-07-28T04:04:07;14.70;99.90
530;DHT22;251;48.704;9.210;2023-07-28T04:06:41;15.10;99.90
530;DHT22;251;48.704;9.210;2023-07-28T04:09:08;14.70;99.90
530;DHT22;251;48.704;9.210;2023-07-28T04:11:35;14.90;99.90
530;DHT22;251;48.704;9.210;2023-07-28T04:14:02;14.70;99.90
530;DHT22;251;48.704;9.210;2023-07-28T04:16:29;14.80;99.90
530;DHT22;251;48.704;9.210;2023-07-28T04:18:57;14.80;99.90
530;DHT22;251;48.704;9.210;2023-07-28T04:21:24;14.90;99.90
530;DHT22;251;48.704;9.210;2023-07-28T04:23:51;14.70;99.90
530;DHT22;251;48.704;9.210;2023-07-28T04:26:18;15.10;99.90
530;DHT22;251;48.704;9.210;2023-07-28T04:28:50;14.90;99.90
530;DHT22;251;48.704;9.210;2023-07-28T04:31:17;14.90;99.90
530;DHT22;251;48.704;9.210;2023-07-28T04:33:53;15.00;99.90
530;DHT22;251;48.704;9.210;2023-07-28T04:36:22;15.00;99.90
530;DHT22;251;48.704;9.210;2023-07-28T04:38:49;15.20;99.90
530;DHT22;251;48.704;9.210;2023-07-28T04:41:16;15.50;99.90
530;DHT22;251;48.704;9.210;2023-07-28T04:43:49;15.30;99.90
530;DHT22;251;48.704;9.210;2023-07-28T04:46:16;15.10;99.90
530;DHT22;251;48.704;9.210;2023-07-28T04:48:49;15.20;99.90
530;DHT22;251;48.704;9.210;2023-07-28T04:51:56;15.30;99.90
530;DHT22;251;48.704;9.210;2023-07-28T04:54:41;15.40;99.90
530;DHT22;251;48.704;9.210;2023-07-28T04:57:08;15.40;99.90
530;DHT22;251;48.704;9.210;2023-07-28T04:59:37;15.40;99.90
530;DHT22;251;48.704;9.210;2023-07-28T05:02:05;15.30;99.90
530;DHT22;251;48.704;9.210;2023-07-28T05:04:31;15.60;99.90
530;DHT22;251;48.704;9.210;2023-07-28T05:07:00;15.40;99.90
530;DHT22;251;48.704;9.210;2023-07-28T05:09:27;15.40;99.90
530;DHT22;251;48.704;9.210;2023-07-28T05:11:54;15.80;99.90
530;DHT22;251;48.704;9.210;2023-07-28T05:14:24;15.90;99.90
530;DHT22;251;48.704;9.210;2023-07-28T05:16:51;15.80;99.90
530;DHT22;251;48.704;9.210;2023-07-28T05:19:17;15.50;99.90
530;DHT22;251;48.704;9.210;2023-07-28T05:22:05;15.70;99.90
530;DHT22;251;48.704;9.210;2023-07-28T05:24:44;16.00;99.90
530;DHT22;251;48.704;9.210;2023-07-28T05:27:11;15.60;99.90
530;DHT22;251;48.704;9.210;2023-07-28T05:29:40;15.70;99.90
530;DHT22;251;48.704;9.210;2023-07-28T05:32:08;15.80;99.90
530;DHT22;251;48.704;9.210;2023-07-28T05:34:49;15.90;99.90
530;DHT22;251;48.704;9.210;2023-07-28T05:37:18;15.70;99.90
530;DHT22;251;48.704;9.210;2023-07-28T05:39:45;16.10;99.90
530;DHT22;251;48.704;9.210;2023-07-28T05:42:12;16.00;99.90
530;DHT22;251;48.704;9.210;2023-07-28T05:44:38;15.70;99.90
530;DHT22;251;48.704;9.210;2023-07-28T05:47:06;16.00;99.90
530;DHT22;251;48.704;9.210;2023-07-28T05:49:33;15.90;99.90
530;DHT22;251;48.704;9.210;2023-07-28T05:52:00;16.10;99.90
530;DHT22;251;48.704;9.210;2023-07-28T05:54:28;16.10;99.90
530;DHT22;251;48.704;9.210;2023-07-28T05:56:55;16.30;99.90
530;DHT22;251;48.704;9.210;2023-07-28T05:59:22;16.20;99.90
530;DHT22;251;48.704;9.210;2023-07-28T06:01:49;16.30;99.90
530;DHT22;251;48.704;9.210;2023-07-28T06:04:34;16.30;99.90
530;DHT22;251;48.704;9.210;2023-07-28T06:07:03;16.60;99.90
530;DHT22;251;48.704;9.210;2023-07-28T06:09:31;16.40;99.90
530;DHT22;251;48.704;9.210;2023-07-28T06:11:58;16.30;99.90
530;DHT22;251;48.704;9.210;2023-07-28T06:14:26;16.30;99.90
530;DHT22;251;48.704;9.210;2023-07-28T06:16:55;16.60;99.90
530;DHT22;251;48.704;9.210;2023-07-28T06:19:23;16.20;99.90
530;DHT22;251;48.704;9.210;2023-07-28T06:21:51;16.50;99.90
530;DHT22;251;48.704;9.210;2023-07-28T06:24:18;16.80;99.90
530;DHT22;251;48.704;9.210;2023-07-28T06:26:46;16.60;99.90
530;DHT22;251;48.704;9.210;2023-07-28T06:29:13;16.70;99.90
530;DHT22;251;48.704;9.210;2023-07-28T06:31:40;16.60;99.90
530;DHT22;251;48.704;9.210;2023-07-28T06:34:06;16.70;99.90
530;DHT22;251;48.704;9.210;2023-07-28T06:36:33;16.80;99.90
530;DHT22;251;48.704;9.210;2023-07-28T06:39:00;16.80;99.90
530;DHT22;251;48.704;9.210;2023-07-28T06:41:28;16.90;99.90
530;DHT22;251;48.704;9.210;2023-07-28T06:44:00;16.90;99.90
530;DHT22;251;48.704;9.210;2023-07-28T06:46:29;16.80;99.90
530;DHT22;251;48.704;9.210;2023-07-28T06:48:56;16.80;99.90
530;DHT22;251;48.704;9.210;2023-07-28T06:51:23;16.90;99.90
530;DHT22;251;48.704;9.210;2023-07-28T06:53:49;16.90;99.90
530;DHT22;251;48.704;9.210;2023-07-28T06:56:16;17.20;99.90
530;DHT22;251;48.704;9.210;2023-07-28T06:58:44;17.00;99.90
530;DHT22;251;48.704;9.210;2023-07-28T07:01:12;16.80;99.90
530;DHT22;251;48.704;9.210;2023-07-28T07:03:39;17.20;99.90
530;DHT22;251;48.704;9.210;2023-07-28T07:06:06;17.20;99.90
530;DHT22;251;48.704;9.210;2023-07-28T07:08:33;17.00;99.90
530;DHT22;251;48.704;9.210;2023-07-28T07:11:00;17.50;99.90
530;DHT22;251;48.704;9.210;2023-07-28T07:13:27;17.60;99.90
530;DHT22;251;48.704;9.210;2023-07-28T07:15:53;17.50;99.90
530;DHT22;251;48.704;9.210;2023-07-28T07:18:21;17.70;99.90
530;DHT22;251;48.704;9.210;2023-07-28T07:20:48;17.80;99.90
530;DHT22;251;48.704;9.210;2023-07-28T07:23:15;18.00;99.90
530;DHT22;251;48.704;9.210;2023-07-28T07:25:42;17.90;99.90
530;DHT22;251;48.704;9.210;2023-07-28T07:28:09;17.80;99.90
530;DHT22;251;48.704;9.210;2023-07-28T07:30:36;18.00;99.90
530;DHT22;251;48.704;9.210;2023-07-28T07:33:03;18.20;99.90
530;DHT22;251;48.704;9.210;2023-07-28T07:35:35;18.10;99.90
530;DHT22;251;48.704;9.210;2023-07-28T07:38:03;18.40;99.90
530;DHT22;251;48.704;9.210;2023-07-28T07:40:30;18.20;99.90
530;DHT22;251;48.704;9.210;2023-07-28T07:42:57;18.50;99.90
530;DHT22;251;48.704;9.210;2023-07-28T07:45:23;18.70;99.90
530;DHT22;251;48.704;9.210;2023-07-28T07:47:50;18.60;99.90
530;DHT22;251;48.704;9.210;2023-07-28T07:50:17;19.00;99.90
530;DHT22;251;48.704;9.210;2023-07-28T07:52:45;18.90;99.90
530;DHT22;251;48.704;9.210;2023-07-28T07:55:12;19.00;99.90
530;DHT22;251;48.704;9.210;2023-07-28T07:57:39;19.20;99.50
530;DHT22;251;48.704;9.210;2023-07-28T08:00:07;19.00;99.90
530;DHT22;251;48.704;9.210;2023-07-28T08:02:40;19.20;99.90
530;DHT22;251;48.704;9.210;2023-07-28T08:05:07;19.10;99.90
530;DHT22;251;48.704;9.210;2023-07-28T08:07:35;19.40;99.90
530;DHT22;251;48.704;9.210;2023-07-28T08:10:04;19.40;96.60
530;DHT22;251;48.704;9.210;2023-07-28T08:12:31;19.20;97.50
530;DHT22;251;48.704;9.210;2023-07-28T08:14:58;19.40;96.40
530;DHT22;251;48.704;9.210;2023-07-28T08:17:25;19.50;98.70
530;DHT22;251;48.704;9.210;2023-07-28T08:19:51;19.70;93.30
530;DHT22;251;48.704;9.210;2023-07-28T08:22:18;19.80;92.90
530;DHT22;251;48.704;9.210;2023-07-28T08:24:45;20.10;96.90
530;DHT22;251;48.704;9.210;2023-07-28T08:27:13;20.10;91.60
530;DHT22;251;48.704;9.210;2023-07-28T08:29:40;20.40;87.00
530;DHT22;251;48.704;9.210;2023-07-28T08:32:07;20.50;78.30
530;DHT22;251;48.704;9.210;2023-07-28T08:34:34;20.60;78.00
530;DHT22;251;48.704;9.210;2023-07-28T08:37:01;20.70;85.10
530;DHT22;251;48.704;9.210;2023-07-28T08:39:28;20.80;68.60
530;DHT22;251;48.704;9.210;2023-07-28T08:41:58;20.90;60.00
530;DHT22;251;48.704;9.210;2023-07-28T08:44:30;21.10;55.50
530;DHT22;251;48.704;9.210;2023-07-28T08:46:57;21.00;56.40
530;DHT22;251;48.704;9.210;2023-07-28T08:49:24;21.10;53.00
530;DHT22;251;48.704;9.210;2023-07-28T08:51:52;21.10;51.30
530;DHT22;251;48.704;9.210;2023-07-28T08:54:23;21.10;50.20
530;DHT22;251;48.704;9.210;2023-07-28T08:56:50;21.20;50.30
530;DHT22;251;48.704;9.210;2023-07-28T08:59:21;21.40;47.20
530;DHT22;251;48.704;9.210;2023-07-28T09:01:51;21.30;48.70
530;DHT22;251;48.704;9.210;2023-07-28T09:04:18;21.30;51.40
530;DHT22;251;48.704;9.210;2023-07-28T09:06:46;21.40;43.20
530;DHT22;251;48.704;9.210;2023-07-28T09:09:13;21.50;39.30
530;DHT22;251;48.704;9.210;2023-07-28T09:11:44;21.60;38.60
530;DHT22;251;48.704;9.210;2023-07-28T09:14:12;21.70;40.00
530;DHT22;251;48.704;9.210;2023-07-28T09:16:39;21.80;38.70
530;DHT22;251;48.704;9.210;2023-07-28T09:19:08;21.80;36.40
530;DHT22;251;48.704;9.210;2023-07-28T09:21:35;21.90;35.40
530;DHT22;251;48.704;9.210;2023-07-28T09:24:04;22.00;38.00
530;DHT22;251;48.704;9.210;2023-07-28T09:26:37;22.10;35.30
530;DHT22;251;48.704;9.210;2023-07-28T09:29:11;22.10;32.30
530;DHT22;251;48.704;9.210;2023-07-28T09:31:38;22.10;30.30
530;DHT22;251;48.704;9.210;2023-07-28T09:34:08;22.10;31.70
530;DHT22;251;48.704;9.210;2023-07-28T09:36:35;22.00;33.20
530;DHT22;251;48.704;9.210;2023-07-28T09:39:05;22.00;32.80
530;DHT22;251;48.704;9.210;2023-07-28T09:41:35;22.10;32.90
530;DHT22;251;48.704;9.210;2023-07-28T09:44:03;22.10;32.90
530;DHT22;251;48.704;9.210;2023-07-28T09:46:33;22.20;33.40
530;DHT22;251;48.704;9.210;2023-07-28T09:49:04;22.20;30.20
530;DHT22;251;48.704;9.210;2023-07-28T09:51:34;22.20;32.70
530;DHT22;251;48.704;9.210;2023-07-28T09:54:06;22.20;32.60
530;DHT22;251;48.704;9.210;2023-07-28T09:56:35;22.20;34.50
530;DHT22;251;48.704;9.210;2023-07-28T09:59:04;22.30;36.80
530;DHT22;251;48.704;9.210;2023-07-28T10:01:34;22.40;34.90
530;DHT22;251;48.704;9.210;2023-07-28T10:04:01;22.50;35.90
530;DHT22;251;48.704;9.210;2023-07-28T10:06:28;22.50;30.10
530;DHT22;251;48.704;9.210;2023-07-28T10:08:57;22.50;32.10
530;DHT22;251;48.704;9.210;2023-07-28T10:11:24;22.40;32.00
530;DHT22;251;48.704;9.210;2023-07-28T10:13:54;22.40;33.40
530;DHT22;251;48.704;9.210;2023-07-28T10:16:30;22.40;33.90
530;DHT22;251;48.704;9.210;2023-07-28T10:18:59;22.40;32.70
530;DHT22;251;48.704;9.210;2023-07-28T10:21:28;22.30;32.40
530;DHT22;251;48.704;9.210;2023-07-28T10:23:57;22.30;37.00
530;DHT22;251;48.704;9.210;2023-07-28T10:26:32;22.30;33.60
530;DHT22;251;48.704;9.210;2023-07-28T10:29:11;22.30;33.80
530;DHT22;251;48.704;9.210;2023-07-28T10:31:49;22.20;34.80
530;DHT22;251;48.704;9.210;2023-07-28T10:34:16;22.20;32.90
530;DHT22;251;48.704;9.210;2023-07-28T10:36:44;22.20;34.90
530;DHT22;251;48.704;9.210;2023-07-28T10:39:17;22.30;33.30
530;DHT22;251;48.704;9.210;2023-07-28T10:42:01;22.40;36.20
530;DHT22;251;48.704;9.210;2023-07-28T10:44:29;22.60;32.70
530;DHT22;251;48.704;9.210;2023-07-28T10:46:56;22.70;29.80
530;DHT22;251;48.704;9.210;2023-07-28T10:49:24;22.80;29.50
530;DHT22;251;48.704;9.210;2023-07-28T10:51:51;23.10;30.20
530;DHT22;251;48.704;9.210;2023-07-28T10:54:19;23.40;29.00
530;DHT22;251;48.704;9.210;2023-07-28T10:56:47;23.70;26.40
530;DHT22;251;48.704;9.210;2023-07-28T10:59:15;23.80;25.40
530;DHT22;251;48.704;9.210;2023-07-28T11:01:42;23.90;23.30
530;DHT22;251;48.704;9.210;2023-07-28T11:04:10;24.00;23.20
530;DHT22;251;48.704;9.210;2023-07-28T11:06:38;24.10;22.10
530;DHT22;251;48.704;9.210;2023-07-28T11:09:07;24.20;20.50
530;DHT22;251;48.704;9.210;2023-07-28T11:11:37;24.30;21.30
530;DHT22;251;48.704;9.210;2023-07-28T11:14:05;24.30;22.30
530;DHT22;251;48.704;9.210;2023-07-28T11:16:33;24.50;22.60
530;DHT22;251;48.704;9.210;2023-07-28T11:19:01;24.60;21.30
530;DHT22;251;48.704;9.210;2023-07-28T11:21:28;24.60;18.90
530;DHT22;251;48.704;9.210;2023-07-28T11:23:55;24.60;21.40
530;DHT22;251;48.704;9.210;2023-07-28T11:26:23;24.60;21.80
530;DHT22;251;48.704;9.210;2023-07-28T11:28:51;24.70;22.00
530;DHT22;251;48.704;9.210;2023-07-28T11:31:23;24.80;20.30
530;DHT22;251;48.704;9.210;2023-07-28T11:33:51;24.80;20.10
530;DHT22;251;48.704;9.210;2023-07-28T11:36:22;24.80;21.20
530;DHT22;251;48.704;9.210;2023-07-28T11:38:49;24.90;21.20
530;DHT22;251;48.704;9.210;2023-07-28T11:41:17;25.00;22.00
530;DHT22;251;48.704;9.210;2023-07-28T11:43:45;25.10;19.40
530;DHT22;251;48.704;9.210;2023-07-28T11:46:32;25.00;19.10
530;DHT22;251;48.704;9.210;2023-07-28T11:49:10;24.90;20.40
530;DHT22;251;48.704;9.210;2023-07-28T11:51:38;24.60;19.00
530;DHT22;251;48.704;9.210;2023-07-28T11:54:11;24.30;19.10
530;DHT22;251;48.704;9.210;2023-07-28T11:56:40;24.00;20.00
530;DHT22;251;48.704;9.210;2023-07-28T11:59:07;23.80;20.90
530;DHT22;251;48.704;9.210;2023-07-28T12:01:49;23.50;20.50
530;DHT22;251;48.704;9.210;2023-07-28T12:04:21;23.40;22.30
530;DHT22;251;48.704;9.210;2023-07-28T12:07:02;23.20;24.50
530;DHT22;251;48.704;9.210;2023-07-28T12:09:31;22.90;28.90
530;DHT22;251;48.704;9.210;2023-07-28T12:11:58;22.50;33.30
530;DHT22;251;48.704;9.210;2023-07-28T12:14:33;22.10;36.90
530;DHT22;251;48.704;9.210;2023-07-28T12:17:01;22.00;44.30
530;DHT22;251;48.704;9.210;2023-07-28T12:19:28;21.90;44.10
530;DHT22;251;48.704;9.210;2023-07-28T12:21:55;21.80;47.60
530;DHT22;251;48.704;9.210;2023-07-28T12:24:22;21.80;45.10
530;DHT22;251;48.704;9.210;2023-07-28T12:26:50;21.90;40.50
530;DHT22;251;48.704;9.210;2023-07-28T12:29:17;22.00;38.90
530;DHT22;251;48.704;9.210;2023-07-28T12:31:44;22.20;40.10
530;DHT22;251;48.704;9.210;2023-07-28T12:34:12;22.20;37.00
530;DHT22;251;48.704;9.210;2023-07-28T12:36:43;22.40;33.40
530;DHT22;251;48.704;9.210;2023-07-28T12:39:10;22.40;32.70
530;DHT22;251;48.704;9.210;2023-07-28T12:41:37;22.60;32.50
530;DHT22;251;48.704;9.210;2023-07-28T12:44:04;22.70;32.60
530;DHT22;251;48.704;9.210;2023-07-28T12:46:31;22.90;32.10
530;DHT22;251;48.704;9.210;2023-07-28T12:48:57;23.10;31.50
530;DHT22;251;48.704;9.210;2023-07-28T12:51:25;23.30;31.70
530;DHT22;251;48.704;9.210;2023-07-28T12:53:52;23.40;28.00
530;DHT22;251;48.704;9.210;2023-07-28T12:56:19;23.50;28.80
530;DHT22;251;48.704;9.210;2023-07-28T12:58:46;23.50;27.80
530;DHT22;251;48.704;9.210;2023-07-28T13:01:13;23.40;27.80
530;DHT22;251;48.704;9.210;2023-07-28T13:03:40;23.40;28.70
530;DHT22;251;48.704;9.210;2023-07-28T13:06:06;23.40;31.00
530;DHT22;251;48.704;9.210;2023-07-28T13:08:34;23.40;28.70
530;DHT22;251;48.704;9.210;2023-07-28T13:11:01;23.30;25.60
530;DHT22;251;48.704;9.210;2023-07-28T13:13:28;23.30;27.80
530;DHT22;251;48.704;9.210;2023-07-28T13:15:56;23.20;29.00
530;DHT22;251;48.704;9.210;2023-07-28T13:18:23;23.20;28.00
530;DHT22;251;48.704;9.210;2023-07-28T13:20:50;23.20;28.30
530;DHT22;251;48.704;9.210;2023-07-28T13:23:17;23.20;28.80
530;DHT22;251;48.704;9.210;2023-07-28T13:25:45;23.00;27.70
530;DHT22;251;48.704;9.210;2023-07-28T13:28:12;22.90;29.50
530;DHT22;251;48.704;9.210;2023-07-28T13:30:40;22.80;30.90
530;DHT22;251;48.704;9.210;2023-07-28T13:33:07;22.60;29.80
530;DHT22;251;48.704;9.210;2023-07-28T13:35:34;22.40;34.50
530;DHT22;251;48.704;9.210;2023-07-28T13:38:00;22.30;36.00
530;DHT22;251;48.704;9.210;2023-07-28T13:40:27;22.10;37.00
530;DHT22;251;48.704;9.210;2023-07-28T13:42:55;22.00;40.80
530;DHT22;251;48.704;9.210;2023-07-28T13:45:22;22.00;42.00
530;DHT22;251;48.704;9.210;2023-07-28T13:47:49;21.80;46.30
530;DHT22;251;48.704;9.210;2023-07-28T13:50:16;21.70;48.70
530;DHT22;251;48.704;9.210;2023-07-28T13:52:42;21.60;58.40
530;DHT22;251;48.704;9.210;2023-07-28T13:55:09;21.40;59.40
530;DHT22;251;48.704;9.210;2023-07-28T13:57:36;21.30;62.30
530;DHT22;251;48.704;9.210;2023-07-28T14:00:05;21.10;72.90
530;DHT22;251;48.704;9.210;2023-07-28T14:02:34;20.90;74.90
530;DHT22;251;48.704;9.210;2023-07-28T14:05:01;20.80;76.90
530;DHT22;251;48.704;9.210;2023-07-28T14:07:28;20.70;87.90
530;DHT22;251;48.704;9.210;2023-07-28T14:09:55;20.60;93.50
530;DHT22;251;48.704;9.210;2023-07-28T14:12:21;20.50;92.50
530;DHT22;251;48.704;9.210;2023-07-28T14:14:48;20.40;89.10
530;DHT22;251;48.704;9.210;2023-07-28T14:17:17;20.30;87.20
530;DHT22;251;48.704;9.210;2023-07-28T14:19:44;20.30;98.20
530;DHT22;251;48.704;9.210;2023-07-28T14:22:11;20.00;99.90
530;DHT22;251;48.704;9.210;2023-07-28T14:24:38;20.20;99.90
530;DHT22;251;48.704;9.210;2023-07-28T14:27:06;20.20;99.90
530;DHT22;251;48.704;9.210;2023-07-28T14:29:32;20.30;99.90
530;DHT22;251;48.704;9.210;2023-07-28T14:31:59;20.10;95.60
530;DHT22;251;48.704;9.210;2023-07-28T14:34:27;20.30;92.70
530;DHT22;251;48.704;9.210;2023-07-28T14:36:54;20.20;99.90
530;DHT22;251;48.704;9.210;2023-07-28T14:39:21;20.30;99.90
530;DHT22;251;48.704;9.210;2023-07-28T14:41:48;20.30;99.90
530;DHT22;251;48.704;9.210;2023-07-28T14:44:15;20.30;99.90
530;DHT22;251;48.704;9.210;2023-07-28T14:46:41;20.40;99.90
530;DHT22;251;48.704;9.210;2023-07-28T14:49:08;20.50;99.90
530;DHT22;251;48.704;9.210;2023-07-28T14:51:36;20.50;99.90
530;DHT22;251;48.704;9.210;2023-07-28T14:54:03;20.50;99.90
530;DHT22;251;48.704;9.210;2023-07-28T14:56:31;20.60;99.30
530;DHT22;251;48.704;9.210;2023-07-28T14:58:58;20.60;98.90
530;DHT22;251;48.704;9.210;2023-07-28T15:01:26;20.70;99.30
530;DHT22;251;48.704;9.210;2023-07-28T15:03:53;20.70;97.20
530;DHT22;251;48.704;9.210;2023-07-28T15:06:20;20.70;92.60
530;DHT22;251;48.704;9.210;2023-07-28T15:08:48;20.70;93.90
530;DHT22;251;48.704;9.210;2023-07-28T15:11:15;20.80;90.30
530;DHT22;251;48.704;9.210;2023-07-28T15:13:43;21.00;88.20
530;DHT22;251;48.704;9.210;2023-07-28T15:16:10;21.30;89.10
530;DHT22;251;48.704;9.210;2023-07-28T15:18:38;21.30;71.40
530;DHT22;251;48.704;9.210;2023-07-28T15:21:06;21.70;67.10
530;DHT22;251;48.704;9.210;2023-07-28T15:23:32;21.80;71.70
530;DHT22;251;48.704;9.210;2023-07-28T15:26:01;22.00;63.30
530;DHT22;251;48.704;9.210;2023-07-28T15:28:28;22.00;55.30
530;DHT22;251;48.704;9.210;2023-07-28T15:30:55;22.10;57.80
530;DHT22;251;48.704;9.210;2023-07-28T15:33:22;22.00;55.50
530;DHT22;251;48.704;9.210;2023-07-28T15:35:51;21.80;61.10
530;DHT22;251;48.704;9.210;2023-07-28T15:38:17;21.70;59.40
530;DHT22;251;48.704;9.210;2023-07-28T15:40:44;21.60;65.40
530;DHT22;251;48.704;9.210;2023-07-28T15:43:12;21.50;69.40
530;DHT22;251;48.704;9.210;2023-07-28T15:45:39;21.40;68.80
530;DHT22;251;48.704;9.210;2023-07-28T15:48:06;21.40;70.00
530;DHT22;251;48.704;9.210;2023-07-28T15:50:33;21.30;69.40
530;DHT22;251;48.704;9.210;2023-07-28T15:53:00;21.30;69.10
530;DHT22;251;48.704;9.210;2023-07-28T15:55:27;21.30;70.60
530;DHT22;251;48.704;9.210;2023-07-28T15:57:53;21.20;73.00
530;DHT22;251;48.704;9.210;2023-07-28T16:00:22;21.20;75.70
530;DHT22;251;48.704;9.210;2023-07-28T16:02:48;21.20;86.40
530;DHT22;251;48.704;9.210;2023-07-28T16:05:15;21.20;78.20
530;DHT22;251;48.704;9.210;2023-07-28T16:07:42;21.20;78.20
530;DHT22;251;48.704;9.210;2023-07-28T16:10:09;21.20;77.00
530;DHT22;251;48.704;9.210;2023-07-28T16:12:36;21.20;89.70
530;DHT22;251;48.704;9.210;2023-07-28T16:15:04;21.20;89.80
530;DHT22;251;48.704;9.210;2023-07-28T16:17:32;21.10;87.10
530;DHT22;251;48.704;9.210;2023-07-28T16:19:59;21.10;88.60
530;DHT22;251;48.704;9.210;2023-07-28T16:22:26;21.10;86.90
530;DHT22;251;48.704;9.210;2023-07-28T16:24:52;21.10;89.60
530;DHT22;251;48.704;9.210;2023-07-28T16:27:19;21.00;92.00
530;DHT22;251;48.704;9.210;2023-07-28T16:29:49;21.00;92.70
530;DHT22;251;48.704;9.210;2023-07-28T16:32:16;20.90;93.30
530;DHT22;251;48.704;9.210;2023-07-28T16:34:44;20.90;97.00
530;DHT22;251;48.704;9.210;2023-07-28T16:37:11;20.90;97.40
530;DHT22;251;48.704;9.210;2023-07-28T16:39:38;20.90;99.90
530;DHT22;251;48.704;9.210;2023-07-28T16:42:05;20.80;91.10